Time;durP1;ratioP1;P1;durP2;ratioP2;P2;SDS_P1;SDS_P2;PMS_P1;PMS_P2;Temp;Humidity;BMP_temperature;BMP_pressure;BME280_temperature;BME280_humidity;BME280_pressure;Samples;Min_cycle;Max_cycle;Signal;HPM_P1;HPM_P2
2022/12/14 00:00:46;;;;;;;56.70;30.70;;;;;;;-4.87;100.00;100634.53;4982281;28;20205;-41
2022/12/14 00:03:12;;;;;;;56.47;30.48;;;;;;;-4.91;100.00;100631.81;4979698;28;20273;-44
2022/12/14 00:05:38;;;;;;;51.80;28.85;;;;;;;-4.90;100.00;100646.63;4983755;28;20192;-41
2022/12/14 00:08:03;;;;;;;57.28;31.50;;;;;;;-4.92;100.00;100641.41;4981835;28;20174;-40
2022/12/14 00:10:31;;;;;;;54.85;30.38;;;;;;;-4.95;100.00;100641.31;4985828;28;20581;-43
2022/12/14 00:12:56;;;;;;;53.60;29.35;;;;;;;-5.02;100.00;100624.63;4981698;28;20265;-43
2022/12/14 00:15:22;;;;;;;50.50;28.00;;;;;;;-4.94;100.00;100630.03;4983717;28;20638;-43
2022/12/14 00:17:47;;;;;;;51.20;29.42;;;;;;;-5.02;100.00;100629.84;4987551;28;21092;-42
2022/12/14 00:20:13;;;;;;;51.80;27.98;;;;;;;-5.02;100.00;100622.00;4986299;28;20715;-43
2022/12/14 00:22:38;;;;;;;48.22;27.27;;;;;;;-5.04;100.00;100613.25;4984295;28;20198;-44
2022/12/14 00:25:04;;;;;;;52.30;28.85;;;;;;;-5.11;100.00;100619.22;4982370;28;20569;-45
2022/12/14 00:27:30;;;;;;;51.47;28.60;;;;;;;-5.19;100.00;100613.81;4986740;28;20188;-43
2022/12/14 00:29:55;;;;;;;53.83;29.38;;;;;;;-5.13;100.00;100613.06;4984945;28;20276;-41
2022/12/14 00:32:21;;;;;;;50.03;28.42;;;;;;;-5.08;100.00;100624.50;4985058;28;20185;-43
2022/12/14 00:34:46;;;;;;;53.72;30.15;;;;;;;-5.21;100.00;100620.72;4987475;28;20193;-41
2022/12/14 00:37:12;;;;;;;56.58;28.67;;;;;;;-5.24;100.00;100611.97;4987994;28;20275;-42
2022/12/14 00:39:37;;;;;;;51.20;28.05;;;;;;;-5.24;100.00;100612.84;4979144;28;20194;-41
2022/12/14 00:42:03;;;;;;;49.13;27.52;;;;;;;-5.17;100.00;100606.88;4986952;28;20202;-42
2022/12/14 00:44:28;;;;;;;56.05;28.45;;;;;;;-5.18;100.00;100597.31;4978407;28;20237;-43
2022/12/14 00:46:54;;;;;;;49.08;27.88;;;;;;;-5.27;100.00;100598.81;4990791;28;20189;-42
2022/12/14 00:49:19;;;;;;;54.85;29.92;;;;;;;-5.30;100.00;100589.19;4985648;28;20212;-43
2022/12/14 00:51:45;;;;;;;53.22;27.98;;;;;;;-5.36;100.00;100589.03;4979629;28;20208;-43
2022/12/14 00:54:10;;;;;;;49.95;28.60;;;;;;;-5.38;100.00;100586.44;4979529;28;20562;-42
2022/12/14 00:56:35;;;;;;;51.03;28.38;;;;;;;-5.43;100.00;100574.97;4978323;28;20542;-42
2022/12/14 00:59:01;;;;;;;51.95;28.85;;;;;;;-5.48;100.00;100571.41;4980341;28;20186;-41
2022/12/14 01:01:26;;;;;;;47.17;26.77;;;;;;;-5.43;100.00;100574.09;4979946;28;20236;-43
2022/12/14 01:04:15;;;;;;;47.88;28.02;;;;;;;-5.50;100.00;100567.88;4985492;28;20197;-43
2022/12/14 01:06:37;;;;;;;53.20;27.88;;;;;;;-5.46;100.00;100561.00;4983796;28;20193;-42
2022/12/14 01:09:03;;;;;;;46.67;26.25;;;;;;;-5.41;100.00;100559.34;4981494;28;20800;-43
2022/12/14 01:11:28;;;;;;;50.72;27.35;;;;;;;-5.45;100.00;100550.56;4985646;28;20233;-42
2022/12/14 01:13:55;;;;;;;43.53;25.80;;;;;;;-5.46;100.00;100559.25;4984945;28;20697;-42
2022/12/14 01:16:21;;;;;;;46.63;27.08;;;;;;;-5.41;100.00;100559.34;4979087;28;20193;-41
2022/12/14 01:18:46;;;;;;;43.33;26.70;;;;;;;-5.43;100.00;100558.44;4982110;28;20242;-42
2022/12/14 01:21:17;;;;;;;41.25;24.55;;;;;;;-5.30;100.00;100559.59;4983480;28;20308;-44
2022/12/14 01:23:43;;;;;;;42.67;24.73;;;;;;;-5.34;100.00;100557.75;4981250;28;20217;-42
2022/12/14 01:26:11;;;;;;;43.92;25.30;;;;;;;-5.35;100.00;100551.66;4975924;28;20288;-43
2022/12/14 01:28:36;;;;;;;42.58;24.42;;;;;;;-5.30;100.00;100560.47;4977784;28;20188;-43
2022/12/14 01:31:15;;;;;;;41.50;25.50;;;;;;;-5.31;100.00;100563.03;4980810;28;20213;-43
2022/12/14 01:33:41;;;;;;;43.20;24.42;;;;;;;-5.39;100.00;100555.94;4980919;28;20236;-42
2022/12/14 01:36:20;;;;;;;41.08;23.52;;;;;;;-5.32;100.00;100554.31;4979537;28;20196;-42
2022/12/14 01:38:46;;;;;;;38.65;24.50;;;;;;;-5.36;100.00;100557.72;4978830;28;20185;-42
2022/12/14 01:41:34;;;;;;;41.67;23.02;;;;;;;-5.28;100.00;100570.94;4981053;28;20232;-42
2022/12/14 01:44:22;;;;;;;39.53;22.75;;;;;;;-5.42;100.00;100565.44;4965931;28;20213;-42
2022/12/14 01:46:51;;;;;;;44.03;24.23;;;;;;;-5.39;100.00;100558.53;4974755;28;20260;-43
2022/12/14 01:49:24;;;;;;;39.28;22.70;;;;;;;-5.36;100.00;100562.94;4978147;28;20641;-42
2022/12/14 01:52:05;;;;;;;35.80;22.58;;;;;;;-5.48;100.00;100571.41;4980964;28;20205;-42
2022/12/14 01:54:35;;;;;;;37.10;22.55;;;;;;;-5.47;100.00;100562.69;4981534;28;20189;-43
2022/12/14 01:57:01;;;;;;;36.25;21.27;;;;;;;-5.39;100.00;100561.16;4975968;28;20218;-43
2022/12/14 01:59:32;;;;;;;35.95;21.08;;;;;;;-5.38;100.00;100562.03;4982137;28;20206;-43
2022/12/14 02:02:01;;;;;;;37.20;22.55;;;;;;;-5.45;100.00;100561.00;4985307;28;20300;-44
2022/12/14 02:04:28;;;;;;;45.88;24.33;;;;;;;-5.53;100.00;100552.16;4982166;28;20213;-44
2022/12/14 02:06:54;;;;;;;41.08;22.75;;;;;;;-5.51;100.00;100565.22;4979016;28;20209;-43
2022/12/14 02:09:26;;;;;;;41.72;23.70;;;;;;;-5.50;100.00;100549.59;4976724;28;20201;-43
2022/12/14 02:12:13;;;;;;;41.05;22.85;;;;;;;-5.51;100.00;100549.53;4985772;28;20300;-42
2022/12/14 02:14:40;;;;;;;36.83;21.27;;;;;;;-5.46;100.00;100540.97;4981317;28;20263;-43
2022/12/14 02:17:07;;;;;;;40.35;22.48;;;;;;;-5.50;100.00;100533.94;4982431;28;20181;-43
2022/12/14 02:19:34;;;;;;;36.08;21.98;;;;;;;-5.52;100.00;100535.63;4979855;28;20192;-43
2022/12/14 02:22:06;;;;;;;36.45;21.17;;;;;;;-5.52;100.00;100537.34;4979836;28;20201;-43
2022/12/14 02:24:57;;;;;;;41.45;22.27;;;;;;;-5.53;100.00;100536.50;4974423;28;20220;-43
2022/12/14 02:27:50;;;;;;;34.70;20.92;;;;;;;-5.55;100.00;100532.97;4985716;28;20200;-43
2022/12/14 02:30:21;;;;;;;42.45;21.33;;;;;;;-5.58;100.00;100532.88;4986509;28;20214;-43
2022/12/14 02:33:02;;;;;;;38.78;20.27;;;;;;;-5.55;100.00;100529.44;4981625;28;20529;-44
2022/12/14 02:35:52;;;;;;;34.28;20.25;;;;;;;-5.53;100.00;100532.97;4977355;28;20207;-43
2022/12/14 02:38:33;;;;;;;32.70;19.83;;;;;;;-5.54;100.00;100539.94;4979564;28;20194;-43
2022/12/14 02:41:13;;;;;;;34.28;20.02;;;;;;;-5.48;100.00;100544.41;4980658;28;20654;-43
2022/12/14 02:44:13;;;;;;;34.30;20.05;;;;;;;-5.62;100.00;100536.25;4975513;28;20193;-42
2022/12/14 02:46:56;;;;;;;38.30;20.80;;;;;;;-5.61;100.00;100525.00;4980498;28;20704;-43
2022/12/14 02:49:28;;;;;;;33.40;19.25;;;;;;;-5.63;100.00;100526.69;4980944;28;20216;-42
2022/12/14 02:51:59;;;;;;;35.65;20.58;;;;;;;-5.73;100.00;100517.75;4987356;28;20527;-44
2022/12/14 02:54:58;;;;;;;36.45;20.05;;;;;;;-5.70;100.00;100516.97;4990738;28;20157;-48
2022/12/14 02:57:33;;;;;;;34.00;19.20;;;;;;;-5.69;100.00;100513.50;4980089;28;20672;-44
2022/12/14 03:00:05;;;;;;;36.92;20.55;;;;;;;-5.70;100.00;100516.97;4990640;28;20550;-50
2022/12/14 03:02:38;;;;;;;35.00;19.73;;;;;;;-5.72;100.00;100513.44;4992099;28;20261;-44
2022/12/14 03:05:08;;;;;;;31.05;20.55;;;;;;;-5.74;100.00;100502.94;4994739;28;20272;-44
2022/12/14 03:07:45;;;;;;;32.72;19.52;;;;;;;-5.76;100.00;100503.78;4994415;28;20176;-43
2022/12/14 03:10:26;;;;;;;36.55;19.88;;;;;;;-5.84;100.00;100496.66;4993400;28;20224;-47
2022/12/14 03:13:02;;;;;;;34.88;18.48;;;;;;;-5.85;100.00;100494.00;4994474;28;20169;-43
2022/12/14 03:15:28;;;;;;;30.95;18.88;;;;;;;-5.87;100.00;100491.34;4994590;28;20590;-44
2022/12/14 03:17:59;;;;;;;37.05;19.73;;;;;;;-5.91;100.00;100494.72;4994535;28;20215;-42
2022/12/14 03:20:27;;;;;;;33.30;19.33;;;;;;;-5.84;100.00;100486.22;4993271;28;20612;-42
2022/12/14 03:23:07;;;;;;;34.50;19.63;;;;;;;-5.90;100.00;100473.03;4994851;28;20177;-42
2022/12/14 03:25:45;;;;;;;30.55;19.23;;;;;;;-5.86;100.00;100479.19;4994450;28;20185;-44
2022/12/14 03:28:29;;;;;;;35.00;19.00;;;;;;;-5.87;100.00;100480.91;4994722;28;20161;-44
2022/12/14 03:31:10;;;;;;;34.47;18.40;;;;;;;-5.85;100.00;100476.63;4994428;28;20250;-43
2022/12/14 03:33:37;;;;;;;28.77;17.15;;;;;;;-5.90;100.00;100483.47;4993191;28;20169;-44
2022/12/14 03:36:15;;;;;;;34.50;17.70;;;;;;;-5.86;100.00;100477.47;4994408;28;20177;-44
2022/12/14 03:38:43;;;;;;;32.63;18.48;;;;;;;-5.88;100.00;100483.50;4994292;28;20601;-43
2022/12/14 03:41:13;;;;;;;29.80;16.73;;;;;;;-5.88;100.00;100484.38;4994261;28;20201;-43
2022/12/14 03:43:54;;;;;;;27.25;16.85;;;;;;;-5.92;100.00;100473.84;4993831;28;20288;-45
2022/12/14 03:46:39;;;;;;;30.58;16.90;;;;;;;-5.92;100.00;100466.03;4992079;28;20204;-41
2022/12/14 03:49:20;;;;;;;25.90;16.10;;;;;;;-5.91;100.00;100455.59;4974694;28;20637;-47
2022/12/14 03:52:12;;;;;;;27.90;17.00;;;;;;;-5.90;100.00;100451.28;4974454;28;20198;-44
2022/12/14 03:55:05;;;;;;;33.22;17.83;;;;;;;-5.96;100.00;100448.59;4971437;28;20653;-44
2022/12/14 03:58:05;;;;;;;27.13;15.95;;;;;;;-5.97;100.00;100447.69;4974550;28;20171;-42
2022/12/14 04:00:40;;;;;;;28.42;15.98;;;;;;;-5.99;100.00;100440.66;4941880;28;20626;-48
2022/12/14 04:03:27;;;;;;;27.80;16.20;;;;;;;-5.97;100.00;100445.06;4974300;28;20181;-46
2022/12/14 04:05:58;;;;;;;28.17;16.20;;;;;;;-5.96;100.00;100444.25;4974315;28;20170;-42
2022/12/14 04:08:42;;;;;;;25.73;16.30;;;;;;;-5.96;100.00;100445.97;4974395;28;20162;-43
2022/12/14 04:21:07;;;;;;;27.30;16.70;;;;;;;-5.99;100.00;100432.84;5012737;28;20296;-50
2022/12/14 04:26:31;;;;;;;27.02;14.65;;;;;;;-6.03;100.00;100430.19;4994982;28;20200;-51
2022/12/14 04:31:54;;;;;;;24.02;14.40;;;;;;;-6.05;100.00;100424.06;4996056;28;20781;-49
2022/12/14 04:34:24;;;;;;;25.80;15.23;;;;;;;-6.04;100.00;100430.13;4999633;28;20177;-49
2022/12/14 04:37:00;;;;;;;26.48;14.57;;;;;;;-6.04;100.00;100432.75;5001593;28;20216;-49
2022/12/14 04:39:52;;;;;;;26.92;15.00;;;;;;;-6.09;100.00;100439.59;4999050;28;20667;-51
2022/12/14 04:42:23;;;;;;;25.45;14.98;;;;;;;-6.07;100.00;100436.16;5002489;28;20679;-49
2022/12/14 04:44:53;;;;;;;23.25;15.30;;;;;;;-6.08;100.00;100429.22;4997964;28;20681;-49
2022/12/14 04:47:19;;;;;;;26.08;15.77;;;;;;;-6.14;100.00;100433.38;4999038;28;20193;-48
2022/12/14 04:49:51;;;;;;;26.17;15.52;;;;;;;-6.15;100.00;100434.22;4999006;28;20188;-51
2022/12/14 04:52:25;;;;;;;24.83;15.00;;;;;;;-6.15;100.00;100429.03;4999039;28;20184;-49
2022/12/14 04:55:28;;;;;;;26.92;15.50;;;;;;;-6.17;100.00;100422.88;4996440;28;20234;-48
2022/12/14 04:58:05;;;;;;;26.05;15.00;;;;;;;-6.18;100.00;100421.16;5012632;28;20258;-47
2022/12/14 05:00:35;;;;;;;27.00;15.63;;;;;;;-6.23;100.00;100416.69;4994090;28;20295;-48
2022/12/14 05:03:18;;;;;;;25.00;15.30;;;;;;;-6.21;100.00;100419.31;4994571;28;20189;-51
2022/12/14 05:06:02;;;;;;;25.13;14.13;;;;;;;-6.29;100.00;100410.47;4995617;28;20648;-50
2022/12/14 05:08:55;;;;;;;28.05;15.30;;;;;;;-6.22;100.00;100414.97;4991782;28;20284;-47
2022/12/14 05:11:28;;;;;;;26.38;15.05;;;;;;;-6.19;100.00;100406.31;4992850;28;20288;-49
2022/12/14 05:13:53;;;;;;;25.38;15.02;;;;;;;-6.28;100.00;100405.25;4995064;28;20190;-49
2022/12/14 05:16:21;;;;;;;26.67;15.38;;;;;;;-6.27;100.00;100400.97;4997155;28;20180;-50
2022/12/14 05:18:47;;;;;;;26.75;14.55;;;;;;;-6.37;100.00;100397.25;4995820;28;20200;-51
2022/12/14 05:21:45;;;;;;;24.35;14.98;;;;;;;-6.42;100.00;100393.66;5000033;28;20229;-48
2022/12/14 05:24:01;;;;;;;22.45;14.40;;;;;;;-6.51;100.00;100386.50;5000856;28;20204;-49
2022/12/14 05:26:28;;;;;;;26.95;15.23;;;;;;;-6.44;100.00;100390.13;5000666;28;20212;-48
2022/12/14 05:28:53;;;;;;;23.13;14.68;;;;;;;-6.44;100.00;100379.72;5001160;28;20278;-52
2022/12/14 05:31:19;;;;;;;25.50;16.33;;;;;;;-6.45;100.00;100375.31;5001414;28;20707;-52
2022/12/14 05:33:44;;;;;;;21.80;13.45;;;;;;;-6.45;100.00;100385.75;4996061;28;20295;-50
2022/12/14 05:36:10;;;;;;;24.35;13.85;;;;;;;-6.39;100.00;100385.91;4996216;28;20271;-49
2022/12/14 05:38:35;;;;;;;25.05;14.80;;;;;;;-6.44;100.00;100371.88;4997139;28;20180;-49
2022/12/14 05:41:01;;;;;;;23.13;13.82;;;;;;;-6.43;100.00;100374.53;4997140;28;20302;-48
2022/12/14 05:43:27;;;;;;;26.77;14.88;;;;;;;-6.49;100.00;100368.31;4997763;28;20192;-51
2022/12/14 05:46:03;;;;;;;22.98;13.50;;;;;;;-6.53;100.00;100363.88;5001778;28;20185;-48
2022/12/14 05:48:30;;;;;;;27.90;13.88;;;;;;;-6.49;100.00;100365.69;4993382;28;20310;-48
2022/12/14 05:51:07;;;;;;;21.85;14.43;;;;;;;-6.55;100.00;100358.59;4992412;28;20208;-49
2022/12/14 05:53:37;;;;;;;22.77;14.40;;;;;;;-6.51;100.00;100367.38;4991744;28;20208;-49
2022/12/14 05:56:04;;;;;;;24.73;14.05;;;;;;;-6.59;100.00;100358.50;4991018;28;20177;-50
2022/12/14 05:58:30;;;;;;;24.23;14.25;;;;;;;-6.56;100.00;100361.16;4996111;28;20184;-48
2022/12/14 06:01:00;;;;;;;21.00;13.63;;;;;;;-6.63;100.00;100363.63;4999354;28;20201;-50
2022/12/14 06:03:26;;;;;;;27.10;14.55;;;;;;;-6.61;100.00;100354.97;5001077;28;20168;-47
2022/12/14 06:05:52;;;;;;;27.08;14.48;;;;;;;-6.66;100.00;100355.75;4995779;28;20220;-49
2022/12/14 06:08:17;;;;;;;21.48;13.50;;;;;;;-6.64;100.00;100361.88;4997542;28;20239;-50
2022/12/14 06:10:43;;;;;;;24.38;13.80;;;;;;;-6.53;100.00;100359.53;4998527;28;20244;-51
2022/12/14 06:13:08;;;;;;;25.02;13.73;;;;;;;-6.64;100.00;100356.66;4992001;28;20184;-51
2022/12/14 06:15:34;;;;;;;25.15;13.63;;;;;;;-6.63;100.00;100355.81;5005298;28;20283;-50
2022/12/14 06:17:59;;;;;;;22.98;13.02;;;;;;;-6.58;100.00;100362.84;5001892;28;20208;-51
2022/12/14 06:20:26;;;;;;;22.13;13.13;;;;;;;-6.54;100.00;100354.28;5004018;28;20203;-50
2022/12/14 06:22:54;;;;;;;20.05;12.50;;;;;;;-6.64;100.00;100361.88;4997297;28;20189;-49
2022/12/14 06:25:20;;;;;;;22.50;12.95;;;;;;;-6.60;100.00;100362.84;4998095;28;20196;-50
2022/12/14 06:27:45;;;;;;;19.58;12.98;;;;;;;-6.59;100.00;100353.28;4996085;28;20683;-48
2022/12/14 06:30:11;;;;;;;23.92;13.10;;;;;;;-6.55;100.00;100357.75;4997619;28;20288;-50
2022/12/14 06:32:37;;;;;;;23.13;12.52;;;;;;;-6.64;100.00;100361.88;4997481;28;20210;-50
2022/12/14 06:35:03;;;;;;;21.35;13.25;;;;;;;-6.63;100.00;100350.59;4995683;28;20405;-48
2022/12/14 06:37:30;;;;;;;17.88;12.32;;;;;;;-6.65;100.00;100351.41;4990632;28;20189;-51
2022/12/14 06:39:56;;;;;;;24.60;13.68;;;;;;;-6.74;100.00;100349.47;4993520;28;20196;-50
2022/12/14 06:42:21;;;;;;;20.48;12.35;;;;;;;-6.68;100.00;100346.16;4991225;28;20188;-49
2022/12/14 06:44:47;;;;;;;23.23;12.90;;;;;;;-6.71;100.00;100349.56;4995876;28;20287;-49
2022/12/14 06:47:12;;;;;;;21.63;12.23;;;;;;;-6.67;100.00;100353.09;4993117;28;20211;-49
2022/12/14 06:49:38;;;;;;;19.65;12.10;;;;;;;-6.77;100.00;100354.63;5000068;28;20223;-49
2022/12/14 06:52:04;;;;;;;19.70;11.45;;;;;;;-6.66;100.00;100354.88;4996363;28;20209;-49
2022/12/14 06:54:29;;;;;;;21.38;12.35;;;;;;;-6.74;100.00;100346.00;5000899;28;20189;-48
2022/12/14 06:56:55;;;;;;;21.85;12.10;;;;;;;-6.73;100.00;100348.66;5001772;28;20610;-49
2022/12/14 06:59:20;;;;;;;23.10;12.18;;;;;;;-6.70;100.00;100348.69;4994892;28;20184;-49
2022/12/14 07:01:46;;;;;;;22.92;12.75;;;;;;;-6.76;100.00;100338.13;4998769;28;20247;-49
2022/12/14 07:04:11;;;;;;;18.63;11.30;;;;;;;-6.72;100.00;100332.16;4997678;28;20252;-48
2022/12/14 07:06:39;;;;;;;19.77;11.85;;;;;;;-6.70;100.00;100347.81;4995199;28;20247;-46
2022/12/14 07:09:07;;;;;;;22.25;12.82;;;;;;;-6.82;100.00;100340.63;4996721;28;20244;-49
2022/12/14 07:11:32;;;;;;;19.83;11.52;;;;;;;-6.81;100.00;100344.97;4993150;28;20201;-50
2022/12/14 07:14:04;;;;;;;19.02;11.52;;;;;;;-6.84;100.00;100352.72;4996383;28;20186;-47
2022/12/14 07:16:31;;;;;;;17.67;10.63;;;;;;;-6.90;100.00;100357.78;4994243;28;20510;-48
2022/12/14 07:18:57;;;;;;;20.40;12.27;;;;;;;-6.88;100.00;100341.34;4993820;28;20642;-49
2022/12/14 07:21:23;;;;;;;22.38;12.30;;;;;;;-7.06;100.00;100346.97;4991623;28;20279;-49
2022/12/14 07:23:50;;;;;;;20.08;11.65;;;;;;;-7.07;100.00;100342.59;4997131;28;20217;-48
2022/12/14 07:26:21;;;;;;;19.13;11.52;;;;;;;-6.95;100.00;100343.75;4989778;28;20204;-48
2022/12/14 07:28:47;;;;;;;20.65;12.00;;;;;;;-6.94;100.00;100337.72;4990712;28;20562;-48
2022/12/14 07:31:15;;;;;;;18.58;11.45;;;;;;;-6.89;100.00;100350.00;5001280;28;20209;-48
2022/12/14 07:33:41;;;;;;;18.83;11.70;;;;;;;-6.90;100.00;100353.44;4996654;28;20182;-47
2022/12/14 07:36:18;;;;;;;21.83;12.25;;;;;;;-6.91;100.00;100342.97;4995815;28;20188;-48
2022/12/14 07:38:46;;;;;;;19.60;11.20;;;;;;;-6.94;99.77;100345.50;4995749;28;20201;-49
2022/12/14 07:41:14;;;;;;;19.98;10.73;;;;;;;-6.84;99.86;100334.50;4997581;28;20201;-50
2022/12/14 07:43:41;;;;;;;18.38;11.10;;;;;;;-6.88;99.62;100340.47;4995499;28;20185;-49
2022/12/14 07:46:14;;;;;;;20.42;11.75;;;;;;;-6.80;99.54;100335.41;4997851;28;20200;-51
2022/12/14 07:48:44;;;;;;;17.38;10.73;;;;;;;-6.77;99.71;100343.31;4998260;28;20184;-49
2022/12/14 07:51:11;;;;;;;17.95;11.43;;;;;;;-6.77;99.44;100340.72;4995692;28;20574;-49
2022/12/14 07:53:38;;;;;;;17.50;10.48;;;;;;;-6.79;99.41;100340.69;4998103;28;20671;-49
2022/12/14 07:56:10;;;;;;;17.77;10.90;;;;;;;-6.78;98.92;100339.81;5000355;28;20647;-50
2022/12/14 07:58:36;;;;;;;17.60;10.30;;;;;;;-6.84;99.36;100335.38;4994817;28;20220;-50
2022/12/14 08:01:16;;;;;;;19.15;10.23;;;;;;;-6.78;98.92;100337.22;5008432;28;20220;-46
2022/12/14 08:03:45;;;;;;;18.80;10.65;;;;;;;-6.71;98.46;100338.25;4998328;28;20803;-50
2022/12/14 08:06:12;;;;;;;16.52;10.00;;;;;;;-6.75;99.00;100347.72;5010329;28;20192;-49
2022/12/14 08:08:39;;;;;;;17.23;10.10;;;;;;;-6.69;98.82;100345.28;5007382;28;20609;-49
2022/12/14 08:11:05;;;;;;;18.50;11.35;;;;;;;-6.70;98.46;100340.00;5009379;28;20672;-49
2022/12/14 08:13:32;;;;;;;19.92;10.70;;;;;;;-6.67;98.35;100346.19;5000212;28;20181;-49
2022/12/14 08:16:08;;;;;;;19.60;11.43;;;;;;;-6.66;98.29;100342.72;5001530;28;20250;-50
2022/12/14 08:18:35;;;;;;;17.95;10.27;;;;;;;-6.64;98.45;100337.56;4996959;28;20242;-50
2022/12/14 08:21:01;;;;;;;14.65;9.98;;;;;;;-6.59;98.54;100348.09;4994701;28;20197;-49
2022/12/14 08:23:27;;;;;;;19.33;10.60;;;;;;;-6.58;97.95;100339.41;5004178;28;20277;-51
2022/12/14 08:25:54;;;;;;;18.55;10.63;;;;;;;-6.52;98.37;100335.22;4997405;28;20215;-50
2022/12/14 08:28:20;;;;;;;15.18;9.70;;;;;;;-6.50;97.88;100336.13;5002689;28;20177;-51
2022/12/14 08:30:46;;;;;;;18.90;10.18;;;;;;;-6.44;97.78;100319.78;5000790;28;20263;-49
2022/12/14 08:33:11;;;;;;;20.02;11.43;;;;;;;-6.37;97.75;100328.59;4994200;28;20256;-50
2022/12/14 08:35:37;;;;;;;16.60;10.38;;;;;;;-6.33;97.45;100333.03;5002959;28;20276;-49
2022/12/14 08:38:02;;;;;;;16.58;10.57;;;;;;;-6.22;97.68;100340.22;5003765;28;20263;-49
2022/12/14 08:40:28;;;;;;;18.88;10.10;;;;;;;-6.19;97.24;100335.94;5000661;28;20576;-51
2022/12/14 08:46:09;;;;;;;15.73;9.18;;;;;;;-6.20;97.35;100336.78;5909545;22;20199;-46
2022/12/14 08:48:35;;;;;;;18.13;10.10;;;;;;;-6.10;96.72;100324.00;5020573;28;20180;-49
2022/12/14 08:51:05;;;;;;;17.02;9.65;;;;;;;-6.02;96.74;100329.34;5018004;28;20205;-47
2022/12/14 08:53:31;;;;;;;16.60;9.80;;;;;;;-5.97;96.78;100324.22;5018846;28;20180;-48
2022/12/14 08:55:57;;;;;;;18.42;9.18;;;;;;;-5.70;96.79;100319.53;5019886;28;20282;-47
2022/12/14 08:58:23;;;;;;;17.58;10.20;;;;;;;-5.63;96.35;100315.31;5017302;28;20204;-48
2022/12/14 09:00:49;;;;;;;16.23;8.88;;;;;;;-5.66;96.37;100303.09;5017650;28;20207;-47
2022/12/14 09:03:14;;;;;;;16.60;9.77;;;;;;;-5.62;96.23;100307.53;5024168;28;20177;-48
2022/12/14 09:05:39;;;;;;;15.55;8.73;;;;;;;-5.59;95.93;100306.69;5020118;28;20224;-47
2022/12/14 09:08:05;;;;;;;15.50;8.95;;;;;;;-5.49;95.45;100302.50;5012297;28;20220;-47
2022/12/14 09:10:30;;;;;;;16.52;10.57;;;;;;;-5.33;95.41;100303.69;5017334;28;20214;-47
2022/12/14 09:12:57;;;;;;;15.35;9.35;;;;;;;-5.20;94.81;100295.19;5015745;28;20188;-48
2022/12/14 09:15:23;;;;;;;14.73;9.48;;;;;;;-5.22;94.75;100294.28;5015415;28;20180;-47
2022/12/14 09:17:49;;;;;;;16.42;9.45;;;;;;;-5.13;94.06;100297.06;5020865;28;20561;-48
2022/12/14 09:20:16;;;;;;;17.85;9.23;;;;;;;-5.06;93.56;100298.91;5024381;28;20211;-51
2022/12/14 09:22:41;;;;;;;17.23;8.02;;;;;;;-4.93;93.38;100306.94;5020546;28;20180;-48
2022/12/14 09:25:08;;;;;;;13.57;8.38;;;;;;;-4.93;92.79;100301.72;5024652;28;20587;-49
2022/12/14 09:27:34;;;;;;;13.68;7.97;;;;;;;-4.90;92.52;100301.75;5016552;28;20179;-47
2022/12/14 09:29:59;;;;;;;10.90;7.57;;;;;;;-4.85;92.20;100308.84;5022817;28;20207;-48
2022/12/14 09:32:27;;;;;;;12.80;8.27;;;;;;;-4.80;92.06;100301.94;5022758;28;20212;-49
2022/12/14 09:34:53;;;;;;;14.13;8.57;;;;;;;-4.68;91.77;100300.34;5018545;28;20275;-48
2022/12/14 09:37:18;;;;;;;14.07;8.23;;;;;;;-4.62;91.24;100287.38;5026818;28;20260;-48
2022/12/14 09:39:44;;;;;;;13.43;8.45;;;;;;;-4.44;90.66;100290.28;5017799;28;20271;-48
2022/12/14 09:42:26;;;;;;;12.77;7.93;;;;;;;-4.24;90.60;100287.00;5022483;28;20720;-47
2022/12/14 09:45:05;;;;;;;11.20;7.60;;;;;;;-4.14;89.91;100273.22;5014412;28;20666;-48
2022/12/14 09:47:47;;;;;;;12.60;7.90;;;;;;;-3.94;89.40;100262.97;5020029;28;20567;-48
2022/12/14 09:50:18;;;;;;;13.02;7.70;;;;;;;-3.85;89.17;100254.34;5020086;28;20523;-47
2022/12/14 09:52:45;;;;;;;14.10;8.77;;;;;;;-3.87;88.43;100258.69;5015820;28;20215;-47
2022/12/14 09:55:17;;;;;;;10.65;7.45;;;;;;;-4.03;88.10;100250.66;5018424;28;20187;-46
2022/12/14 09:57:44;;;;;;;11.52;7.25;;;;;;;-3.82;87.70;100243.94;5017205;28;20722;-48
2022/12/14 10:00:17;;;;;;;11.50;7.32;;;;;;;-3.69;87.04;100244.94;5020632;28;20675;-49
2022/12/14 10:03:35;;;;;;;11.85;7.53;;;;;;;-3.63;86.38;100235.41;5017794;28;20327;-47
2022/12/14 10:06:09;;;;;;;10.23;6.88;;;;;;;-3.56;85.67;100233.72;4996498;28;20189;-48
2022/12/14 10:08:48;;;;;;;11.23;6.95;;;;;;;-3.41;85.40;100235.56;5013355;28;20540;-49
2022/12/14 10:11:38;;;;;;;11.93;7.30;;;;;;;-3.31;85.08;100217.34;5020317;28;20756;-47
2022/12/14 10:14:30;;;;;;;11.90;7.50;;;;;;;-3.33;84.34;100216.44;5016532;28;20187;-47
2022/12/14 10:17:10;;;;;;;11.73;7.65;;;;;;;-3.18;84.04;100213.06;5014095;28;20207;-48
2022/12/14 10:19:36;;;;;;;10.52;7.32;;;;;;;-3.11;83.07;100208.75;5016472;28;20266;-48
2022/12/14 10:22:08;;;;;;;14.00;7.82;;;;;;;-3.27;82.89;100202.53;5018294;28;20193;-48
2022/12/14 10:24:43;;;;;;;10.20;6.38;;;;;;;-3.16;82.64;100213.09;5016086;28;20193;-47
2022/12/14 10:27:20;;;;;;;11.63;7.30;;;;;;;-3.29;82.48;100199.03;5017032;28;20192;-48
2022/12/14 10:29:59;;;;;;;11.27;7.07;;;;;;;-3.16;82.16;100194.75;5024881;28;20190;-48
2022/12/14 10:32:34;;;;;;;9.95;7.47;;;;;;;-3.19;81.97;100194.72;5044532;22;20273;-40
2022/12/14 10:35:17;;;;;;;10.45;7.13;;;;;;;-3.21;81.51;100194.72;5039983;28;20174;-42
2022/12/14 10:38:05;;;;;;;11.68;7.43;;;;;;;-3.11;81.61;100188.66;5017318;28;20552;-43
2022/12/14 10:40:33;;;;;;;11.10;7.35;;;;;;;-3.06;81.10;100193.06;5023819;28;20196;-43
2022/12/14 10:43:20;;;;;;;13.70;8.50;;;;;;;-3.00;80.91;100193.97;5033255;28;20179;-43
2022/12/14 10:45:55;;;;;;;11.57;6.90;;;;;;;-3.03;81.16;100188.72;5031782;28;20688;-40
2022/12/14 10:48:30;;;;;;;10.48;6.82;;;;;;;-2.94;81.46;100180.91;5033693;28;20230;-42
2022/12/14 10:51:01;;;;;;;12.35;7.38;;;;;;;-3.10;81.36;100189.56;5018003;28;20202;-42
2022/12/14 10:53:36;;;;;;;11.70;7.90;;;;;;;-3.08;80.49;100189.56;5043390;28;20673;-42
2022/12/14 10:56:07;;;;;;;10.68;6.65;;;;;;;-3.05;80.60;100186.97;5038826;28;20187;-39
2022/12/14 10:58:33;;;;;;;8.60;6.25;;;;;;;-3.16;80.35;100181.66;5034378;28;20179;-47
2022/12/14 11:00:58;;;;;;;9.73;6.53;;;;;;;-3.03;79.60;100175.63;5037027;28;20218;-44
2022/12/14 11:03:24;;;;;;;8.63;6.47;;;;;;;-2.97;79.46;100172.19;5036595;28;20214;-41
2022/12/14 11:05:57;;;;;;;14.10;6.32;;;;;;;-2.94;79.41;100169.56;5044868;28;20199;-40
2022/12/14 11:08:43;;;;;;;9.18;6.07;;;;;;;-2.88;78.72;100158.25;5017188;28;20282;-40
2022/12/14 11:11:22;;;;;;;10.25;6.72;;;;;;;-2.86;78.99;100159.13;5040801;28;20203;-43
2022/12/14 11:13:50;;;;;;;9.85;6.22;;;;;;;-2.83;77.82;100149.53;5036184;28;20180;-40
2022/12/14 11:16:22;;;;;;;8.30;5.82;;;;;;;-2.71;77.95;100144.34;5037570;28;20184;-42
2022/12/14 11:18:56;;;;;;;8.65;5.90;;;;;;;-2.68;77.14;100140.88;5039347;28;20270;-40
2022/12/14 11:21:29;;;;;;;11.32;6.32;;;;;;;-2.65;76.84;100151.34;5037306;28;20210;-42
2022/12/14 11:23:55;;;;;;;10.02;6.43;;;;;;;-2.56;76.74;100146.19;5032390;28;20207;-42
2022/12/14 11:26:27;;;;;;;7.97;5.85;;;;;;;-2.54;77.20;100131.28;5033741;28;20255;-41
2022/12/14 11:28:55;;;;;;;11.80;5.82;;;;;;;-2.41;76.78;100131.34;5053575;28;20200;-41
2022/12/14 11:31:36;;;;;;;7.53;5.53;;;;;;;-2.34;75.96;100128.75;5046521;28;20532;-42
2022/12/14 11:34:05;;;;;;;10.55;6.38;;;;;;;-2.25;75.51;100124.38;5039329;28;20208;-41
2022/12/14 11:36:39;;;;;;;8.50;5.63;;;;;;;-2.23;74.58;100115.69;5050132;28;20255;-39
2022/12/14 11:39:11;;;;;;;9.90;6.22;;;;;;;-2.23;74.75;100123.56;5041485;28;20206;-43
2022/12/14 11:41:40;;;;;;;8.20;6.38;;;;;;;-2.13;74.54;100119.19;5038958;28;20246;-39
2022/12/14 11:44:22;;;;;;;8.68;5.70;;;;;;;-1.86;74.31;100118.31;5038691;28;20295;-40